Time;durP1;ratioP1;P1;durP2;ratioP2;P2;SDS_P1;SDS_P2;PMS_P1;PMS_P2;Temp;Humidity;BMP_temperature;BMP_pressure;BME280_temperature;BME280_humidity;BME280_pressure;Samples;Min_cycle;Max_cycle;Signal;HPM_P1;HPM_P2
2023/04/26 00:02:23;;;;;;;16.27;10.93;;;;;;;9.28;100.00;98291.66;5138820;28;20137;-63
2023/04/26 00:04:51;;;;;;;16.90;10.50;;;;;;;9.28;100.00;98272.50;5138386;27;20138;-63
2023/04/26 00:07:18;;;;;;;16.02;10.35;;;;;;;9.02;100.00;98281.63;5138717;28;20146;-62
2023/04/26 00:09:44;;;;;;;17.65;10.70;;;;;;;9.06;100.00;98299.63;5138300;27;20341;-65
2023/04/26 00:12:10;;;;;;;14.57;9.90;;;;;;;9.28;100.00;98289.69;5138225;28;20176;-65
2023/04/26 00:14:36;;;;;;;15.18;10.25;;;;;;;9.19;100.00;98262.66;5138466;27;20055;-65
2023/04/26 00:17:03;;;;;;;14.30;10.23;;;;;;;9.29;100.00;98252.97;5138400;28;20199;-62
2023/04/26 00:19:29;;;;;;;13.80;9.63;;;;;;;9.22;100.00;98224.78;5138463;28;20142;-64
2023/04/26 00:21:55;;;;;;;17.20;9.48;;;;;;;9.10;100.00;98223.13;5138131;28;20047;-65
2023/04/26 00:24:22;;;;;;;18.20;10.75;;;;;;;9.29;100.00;98227.56;5138478;28;20283;-65
2023/04/26 00:26:48;;;;;;;16.48;10.13;;;;;;;9.29;100.00;98227.56;5138191;28;20055;-65
2023/04/26 00:29:14;;;;;;;14.15;9.60;;;;;;;9.27;100.00;98211.56;5137923;28;20150;-64
2023/04/26 00:31:39;;;;;;;17.48;10.40;;;;;;;9.30;100.00;98199.06;5138067;28;20147;-63
2023/04/26 00:34:05;;;;;;;16.08;11.10;;;;;;;9.29;100.00;98192.00;5138428;28;20142;-63
2023/04/26 00:36:31;;;;;;;14.52;9.40;;;;;;;9.22;100.00;98192.75;5137907;27;20377;-62
2023/04/26 00:38:57;;;;;;;15.80;9.50;;;;;;;9.30;100.00;98169.00;5138302;28;20310;-65
2023/04/26 00:41:24;;;;;;;14.75;9.25;;;;;;;9.40;100.00;98155.38;5138056;28;20058;-65
2023/04/26 00:43:50;;;;;;;12.88;8.77;;;;;;;9.44;100.00;98117.09;5138092;28;20065;-63
2023/04/26 00:46:16;;;;;;;12.18;8.77;;;;;;;9.57;100.00;98082.00;5138075;27;20077;-64
2023/04/26 00:48:42;;;;;;;14.77;8.65;;;;;;;9.58;100.00;98047.97;5137656;28;20087;-66
2023/04/26 00:51:08;;;;;;;11.48;8.50;;;;;;;9.78;100.00;98016.38;5137427;27;20047;-64
2023/04/26 00:53:34;;;;;;;12.18;8.60;;;;;;;9.79;100.00;97946.00;5137767;28;20137;-64
2023/04/26 00:56:01;;;;;;;13.75;8.98;;;;;;;9.96;100.00;97906.13;5137994;27;20047;-64
2023/04/26 00:58:28;;;;;;;12.88;8.90;;;;;;;9.95;100.00;97904.56;5137697;28;20065;-65
2023/04/26 01:00:54;;;;;;;14.18;8.63;;;;;;;9.91;100.00;97931.94;5137885;28;20346;-64
2023/04/26 01:03:20;;;;;;;14.15;9.50;;;;;;;9.98;100.00;97917.47;5137496;28;20476;-63
2023/04/26 01:05:47;;;;;;;14.98;8.60;;;;;;;10.02;100.00;97874.44;5137945;27;20046;-66
2023/04/26 01:08:16;;;;;;;10.57;8.13;;;;;;;10.09;100.00;97847.03;5137340;28;20055;-66
2023/04/26 01:10:43;;;;;;;15.07;8.32;;;;;;;9.96;100.00;97802.84;5137672;28;20070;-65
2023/04/26 01:13:10;;;;;;;18.52;8.55;;;;;;;9.49;100.00;97831.44;5137382;27;20061;-63
2023/04/26 01:15:36;;;;;;;14.02;8.88;;;;;;;10.02;100.00;97915.50;5137568;28;20075;-63
2023/04/26 01:18:02;;;;;;;16.42;9.48;;;;;;;10.20;100.00;97916.28;5137446;28;20491;-61
2023/04/26 01:20:28;;;;;;;17.77;9.38;;;;;;;10.26;100.00;97903.00;5139091;28;20050;-63
2023/04/26 01:22:55;;;;;;;16.10;9.32;;;;;;;10.22;100.00;97922.16;5141150;28;20053;-64
2023/04/26 01:25:21;;;;;;;20.63;9.18;;;;;;;10.06;100.00;97965.56;5137259;28;20047;-63
2023/04/26 01:27:47;;;;;;;15.77;9.02;;;;;;;10.09;100.00;98036.75;5137559;28;20138;-66
2023/04/26 01:30:13;;;;;;;15.48;9.43;;;;;;;10.02;100.00;98083.31;5137202;28;20058;-66
2023/04/26 01:32:39;;;;;;;13.93;8.20;;;;;;;10.13;100.00;98086.09;5137601;28;20157;-62
2023/04/26 01:35:06;;;;;;;14.48;8.50;;;;;;;10.14;100.00;98063.00;5137075;27;20408;-62
2023/04/26 01:37:32;;;;;;;15.75;8.43;;;;;;;10.10;100.00;98076.69;5137465;27;20059;-66
2023/04/26 01:39:59;;;;;;;13.85;8.82;;;;;;;10.10;100.00;98084.13;5137310;28;20051;-66
2023/04/26 01:42:24;;;;;;;16.10;9.07;;;;;;;10.02;100.00;98121.63;5137201;28;20055;-65
2023/04/26 01:44:50;;;;;;;14.05;8.80;;;;;;;10.05;100.00;98120.88;5137276;28;20085;-64
2023/04/26 01:47:16;;;;;;;13.57;8.52;;;;;;;10.01;100.00;98136.50;5136844;28;20408;-63
2023/04/26 01:49:42;;;;;;;13.90;8.90;;;;;;;9.96;100.00;98152.50;5137099;28;20047;-63
2023/04/26 01:52:08;;;;;;;11.23;7.75;;;;;;;9.96;100.00;98150.56;5136981;27;20051;-63
2023/04/26 01:54:34;;;;;;;14.93;8.23;;;;;;;10.09;100.00;98140.03;5137137;27;20051;-64
2023/04/26 01:57:01;;;;;;;10.63;8.05;;;;;;;10.09;100.00;98118.91;5136916;28;20203;-66
2023/04/26 01:59:27;;;;;;;12.68;8.00;;;;;;;10.07;100.00;98063.78;5137145;27;20051;-62
2023/04/26 02:01:53;;;;;;;12.10;8.85;;;;;;;9.97;100.00;98088.41;5136801;28;20108;-64
2023/04/26 02:04:19;;;;;;;15.30;8.20;;;;;;;10.15;100.00;98091.94;5138411;27;20528;-65
2023/04/26 02:06:45;;;;;;;13.00;7.90;;;;;;;10.21;100.00;98027.41;5140361;27;20134;-66
2023/04/26 02:09:11;;;;;;;8.77;6.93;;;;;;;10.09;100.00;97976.53;5140118;27;20483;-65
2023/04/26 02:11:37;;;;;;;11.35;7.55;;;;;;;10.26;100.00;97974.22;5140529;27;20051;-65
2023/04/26 02:14:03;;;;;;;16.33;7.05;;;;;;;10.10;100.00;97925.28;5140222;28;20141;-64
2023/04/26 02:16:31;;;;;;;13.75;8.95;;;;;;;10.15;100.00;97933.09;5140535;28;20138;-65
2023/04/26 02:18:58;;;;;;;11.57;7.50;;;;;;;10.31;100.00;97914.34;5140296;28;20058;-63
2023/04/26 02:21:24;;;;;;;10.45;7.68;;;;;;;10.20;100.00;97841.56;5140447;28;20362;-63
2023/04/26 02:23:50;;;;;;;10.65;7.35;;;;;;;10.19;100.00;97821.59;5140162;28;20097;-65
2023/04/26 02:26:16;;;;;;;9.93;7.10;;;;;;;10.14;100.00;97816.53;5140408;27;20047;-65
2023/04/26 02:28:42;;;;;;;15.18;8.00;;;;;;;10.17;100.00;97798.53;5139975;28;20448;-64
2023/04/26 02:31:08;;;;;;;16.40;7.25;;;;;;;10.07;100.00;97813.81;5140332;27;20404;-63
2023/04/26 02:33:34;;;;;;;10.65;6.75;;;;;;;10.20;100.00;97806.75;5139926;28;20130;-64
2023/04/26 02:36:03;;;;;;;12.90;8.10;;;;;;;10.18;100.00;97802.81;5140187;27;20317;-63
2023/04/26 02:38:29;;;;;;;10.30;7.95;;;;;;;10.34;100.00;97808.69;5139785;28;20464;-65
2023/04/26 02:40:58;;;;;;;11.88;7.38;;;;;;;10.04;100.00;97781.75;5139930;28;20051;-66
2023/04/26 02:43:23;;;;;;;11.35;7.63;;;;;;;10.00;100.00;97828.28;5139812;27;20302;-64
2023/04/26 02:45:49;;;;;;;11.70;7.50;;;;;;;9.92;100.00;97867.78;5139642;28;20111;-64
2023/04/26 02:48:16;;;;;;;10.25;7.82;;;;;;;9.64;100.00;97902.19;5139938;28;20146;-65
2023/04/26 02:50:42;;;;;;;12.80;7.68;;;;;;;9.68;100.00;97981.56;5139581;28;20066;-63
2023/04/26 02:53:08;;;;;;;9.52;7.50;;;;;;;9.94;100.00;97979.66;5139923;28;20047;-65
2023/04/26 02:55:34;;;;;;;9.80;7.13;;;;;;;9.64;100.00;98005.41;5139604;28;20047;-66
2023/04/26 02:58:00;;;;;;;15.90;7.65;;;;;;;9.76;100.00;98040.59;5139929;28;20047;-64
2023/04/26 03:00:26;;;;;;;13.10;8.65;;;;;;;9.60;100.00;98018.28;5139353;28;20482;-63
2023/04/26 03:02:52;;;;;;;10.40;6.97;;;;;;;9.73;100.00;98024.16;5139856;28;20325;-63
2023/04/26 03:05:19;;;;;;;12.80;7.80;;;;;;;9.74;100.00;98015.59;5139300;27;20051;-62
2023/04/26 03:07:45;;;;;;;9.07;7.40;;;;;;;9.81;100.00;97974.53;5139692;28;20215;-62
2023/04/26 03:10:11;;;;;;;10.10;6.75;;;;;;;9.82;100.00;97940.50;5139596;28;20141;-66
2023/04/26 03:12:37;;;;;;;14.35;7.43;;;;;;;9.81;100.00;97917.06;5139230;28;20444;-64
2023/04/26 03:15:04;;;;;;;12.05;6.70;;;;;;;9.90;100.00;97900.25;5139088;27;20134;-63
2023/04/26 03:17:29;;;;;;;11.13;6.75;;;;;;;9.92;100.00;97859.56;5139367;28;20094;-64
2023/04/26 03:19:55;;;;;;;10.70;7.05;;;;;;;9.82;100.00;97885.00;5139476;28;20133;-63
2023/04/26 03:22:22;;;;;;;8.18;6.95;;;;;;;9.96;100.00;97882.25;5139177;27;20081;-62
2023/04/26 03:24:48;;;;;;;9.23;6.40;;;;;;;9.83;100.00;97895.56;5139534;28;20134;-63
2023/04/26 03:27:14;;;;;;;9.80;6.90;;;;;;;9.96;100.00;97859.56;5139011;28;20150;-63
2023/04/26 03:29:40;;;;;;;12.88;7.72;;;;;;;10.10;100.00;97865.06;5139386;28;20405;-65
2023/04/26 03:32:06;;;;;;;8.75;6.53;;;;;;;10.59;100.00;97831.28;5138892;27;20111;-63
2023/04/26 03:34:32;;;;;;;12.40;7.03;;;;;;;10.70;100.00;97724.38;5139344;27;20090;-62
2023/04/26 03:36:58;;;;;;;14.00;5.85;;;;;;;10.84;100.00;97570.75;5138708;27;20063;-63
2023/04/26 03:39:25;;;;;;;9.73;6.57;;;;;;;10.82;100.00;97492.84;5139041;28;20146;-64
2023/04/26 03:41:51;;;;;;;11.25;6.18;;;;;;;10.81;100.00;97415.31;5138893;28;20047;-65
2023/04/26 03:44:17;;;;;;;8.25;6.32;;;;;;;10.47;100.00;97433.69;5138817;28;20375;-63
2023/04/26 03:46:43;;;;;;;8.32;6.63;;;;;;;10.74;100.00;97488.63;5139041;28;20097;-62
2023/04/26 03:49:09;;;;;;;9.60;6.63;;;;;;;10.65;100.00;97375.97;5138741;28;20138;-63
2023/04/26 03:51:35;;;;;;;10.90;6.32;;;;;;;10.70;100.00;97386.47;5138974;28;20070;-63
2023/04/26 03:54:01;;;;;;;8.40;6.60;;;;;;;11.14;100.00;97425.91;5138675;28;20051;-65
2023/04/26 03:56:27;;;;;;;9.65;6.88;;;;;;;11.16;100.00;97439.97;5138962;28;20054;-64
2023/04/26 03:58:53;;;;;;;6.72;5.95;;;;;;;11.04;100.00;97332.41;5138559;28;20134;-65
2023/04/26 04:01:19;;;;;;;10.35;6.18;;;;;;;10.91;100.00;97306.72;5139304;27;20134;-64
2023/04/26 04:03:45;;;;;;;9.65;6.25;;;;;;;11.07;100.00;97259.50;5140495;27;20107;-63
2023/04/26 04:06:11;;;;;;;9.82;6.03;;;;;;;11.04;100.00;97249.38;5139149;27;20072;-62
2023/04/26 04:08:37;;;;;;;8.13;5.72;;;;;;;10.89;100.00;97269.94;5138592;28;20058;-66
2023/04/26 04:11:03;;;;;;;9.63;6.13;;;;;;;11.11;100.00;97312.31;5138337;28;20043;-63
2023/04/26 04:13:30;;;;;;;8.80;5.90;;;;;;;11.32;100.00;97273.59;5138294;28;20054;-63
2023/04/26 04:15:56;;;;;;;10.50;6.95;;;;;;;11.26;100.00;97278.03;5138415;28;20305;-62
2023/04/26 04:18:22;;;;;;;13.23;6.50;;;;;;;11.22;100.00;97408.94;5138355;27;20080;-64
2023/04/26 04:20:48;;;;;;;8.27;6.22;;;;;;;11.15;100.00;97389.06;5138096;27;20096;-65
2023/04/26 04:23:14;;;;;;;10.15;5.78;;;;;;;11.34;100.00;97402.13;5138521;27;20047;-66
2023/04/26 04:25:40;;;;;;;13.25;6.40;;;;;;;11.40;100.00;97381.28;5137793;27;20084;-65
2023/04/26 04:28:07;;;;;;;11.57;6.53;;;;;;;11.44;100.00;97439.63;5137774;28;20059;-65
2023/04/26 04:30:34;;;;;;;14.02;7.88;;;;;;;11.48;100.00;97530.91;5137921;27;20417;-66
2023/04/26 04:33:00;;;;;;;11.20;7.22;;;;;;;11.53;100.00;97541.44;5138370;27;20058;-62
2023/04/26 04:35:27;;;;;;;9.73;6.47;;;;;;;11.54;100.00;97594.34;5138059;27;20134;-63
2023/04/26 04:37:55;;;;;;;8.45;5.97;;;;;;;11.58;100.00;97628.03;5137781;28;20054;-64
2023/04/26 04:40:21;;;;;;;12.10;6.97;;;;;;;11.53;100.00;97688.88;5137988;28;20065;-65
2023/04/26 04:42:48;;;;;;;13.00;7.90;;;;;;;11.55;100.00;97845.66;5137976;28;20274;-65
2023/04/26 04:45:14;;;;;;;10.40;7.60;;;;;;;11.61;100.00;97824.84;5137743;27;20441;-65
2023/04/26 04:47:40;;;;;;;12.27;7.38;;;;;;;11.62;100.00;97859.34;5137618;28;20051;-63
2023/04/26 04:50:07;;;;;;;12.25;8.65;;;;;;;11.64;100.00;97889.91;5137965;28;20079;-63
2023/04/26 04:52:33;;;;;;;13.80;6.88;;;;;;;11.67;100.00;97894.59;5137624;27;20046;-66
2023/04/26 04:55:00;;;;;;;13.57;8.35;;;;;;;11.67;100.00;97960.50;5137810;27;20146;-64
2023/04/26 04:57:26;;;;;;;12.68;8.38;;;;;;;11.63;100.00;97986.38;5137415;27;20545;-65
2023/04/26 04:59:52;;;;;;;13.00;8.30;;;;;;;11.47;100.00;97931.97;5137897;27;20082;-63
2023/04/26 05:02:18;;;;;;;12.02;7.90;;;;;;;11.72;100.00;97989.47;5137296;28;20047;-63
2023/04/26 05:04:45;;;;;;;11.73;8.35;;;;;;;11.43;100.00;97907.31;5137341;27;20130;-64
2023/04/26 05:07:11;;;;;;;11.90;8.52;;;;;;;11.50;100.00;97912.75;5137383;28;20142;-64
2023/04/26 05:09:37;;;;;;;13.55;8.82;;;;;;;11.51;100.00;97785.31;5137201;28;20477;-65
2023/04/26 05:12:04;;;;;;;13.13;8.13;;;;;;;11.70;100.00;97729.09;5137377;27;20055;-64
2023/04/26 05:14:30;;;;;;;11.23;8.02;;;;;;;11.88;100.00;97695.97;5137126;28;20416;-63
2023/04/26 05:16:56;;;;;;;12.77;7.78;;;;;;;12.23;100.00;97551.16;5137252;28;20397;-65
2023/04/26 05:19:22;;;;;;;12.05;8.38;;;;;;;12.53;100.00;97484.31;5137207;28;20055;-63
2023/04/26 05:21:48;;;;;;;11.68;8.07;;;;;;;13.62;100.00;97426.81;5137146;28;20111;-62
2023/04/26 05:24:14;;;;;;;12.77;7.15;;;;;;;13.82;100.00;97170.59;5137161;28;20047;-63
2023/04/26 05:26:40;;;;;;;13.95;8.52;;;;;;;13.62;100.00;97108.19;5137583;28;20051;-63
2023/04/26 05:29:06;;;;;;;11.88;8.05;;;;;;;13.67;100.00;96987.75;5136917;28;20051;-65
2023/04/26 05:31:32;;;;;;;13.98;8.52;;;;;;;13.60;100.00;96959.19;5137388;28;20112;-67
2023/04/26 05:33:58;;;;;;;12.93;8.52;;;;;;;13.16;100.00;96936.84;5137049;28;20054;-66
2023/04/26 05:36:24;;;;;;;12.88;8.95;;;;;;;13.70;100.00;96951.84;5136983;27;20141;-65
2023/04/26 05:38:51;;;;;;;15.50;9.30;;;;;;;13.40;100.00;96958.63;5139420;27;20081;-63
2023/04/26 05:41:17;;;;;;;11.93;8.40;;;;;;;13.42;100.00;96961.69;5140535;28;20043;-63
2023/04/26 05:43:43;;;;;;;14.93;8.25;;;;;;;13.47;100.00;96930.88;5140632;28;20153;-63
2023/04/26 05:46:08;;;;;;;16.70;8.40;;;;;;;13.50;100.00;96927.25;5140443;28;20047;-65
2023/04/26 05:48:34;;;;;;;12.85;7.75;;;;;;;13.30;100.00;96941.19;5140752;28;20308;-66
2023/04/26 05:51:01;;;;;;;17.85;7.90;;;;;;;13.36;100.00;96925.69;5140573;28;20043;-62
2023/04/26 05:53:27;;;;;;;13.02;7.40;;;;;;;13.72;100.00;96899.84;5140737;27;20438;-65
2023/04/26 05:55:54;;;;;;;14.82;8.25;;;;;;;13.49;100.00;96931.19;5140231;28;20046;-63
2023/04/26 05:58:20;;;;;;;11.07;7.43;;;;;;;13.70;100.00;96913.28;5140865;28;20058;-64
2023/04/26 06:00:46;;;;;;;10.55;6.53;;;;;;;13.65;100.00;96922.84;5140377;27;20082;-64
2023/04/26 06:03:12;;;;;;;11.40;6.93;;;;;;;13.61;100.00;96896.66;5140515;28;20051;-65
2023/04/26 06:05:38;;;;;;;11.45;7.22;;;;;;;13.86;100.00;96893.09;5140400;27;20051;-62
2023/04/26 06:08:05;;;;;;;10.57;6.40;;;;;;;13.86;100.00;96893.09;5140174;27;20082;-62
2023/04/26 06:10:30;;;;;;;13.40;6.82;;;;;;;13.95;100.00;96904.22;5140163;27;20142;-63
2023/04/26 06:12:57;;;;;;;8.20;5.38;;;;;;;13.87;100.00;96920.22;5140001;28;20141;-63
2023/04/26 06:15:23;;;;;;;9.65;6.35;;;;;;;13.65;100.00;96908.31;5140289;27;20138;-64
2023/04/26 06:17:49;;;;;;;9.50;6.60;;;;;;;13.76;100.00;96902.47;5139931;28;20061;-63
2023/04/26 06:20:15;;;;;;;10.27;7.53;;;;;;;13.93;100.00;96883.84;5140325;28;20089;-63
2023/04/26 06:22:41;;;;;;;10.95;6.25;;;;;;;13.63;100.00;96895.00;5139792;28;20043;-63
2023/04/26 06:25:07;;;;;;;11.18;5.80;;;;;;;13.82;100.00;96893.22;5140165;28;20047;-64
2023/04/26 06:27:33;;;;;;;10.82;6.13;;;;;;;14.53;100.00;96892.16;5139756;28;20080;-65
2023/04/26 06:30:00;;;;;;;9.23;5.90;;;;;;;14.81;100.00;96899.41;5140122;27;20110;-66
2023/04/26 06:32:26;;;;;;;9.68;6.20;;;;;;;14.80;100.00;96900.63;5139835;28;20126;-69
2023/04/26 06:34:52;;;;;;;6.38;5.03;;;;;;;14.88;100.00;96945.28;5139466;27;20051;-69
2023/04/26 06:37:18;;;;;;;7.80;5.70;;;;;;;14.86;100.00;96978.06;5139816;28;20051;-68
2023/04/26 06:39:43;;;;;;;9.10;5.97;;;;;;;14.89;100.00;96990.94;5139857;27;20110;-65
2023/04/26 06:42:10;;;;;;;11.73;6.75;;;;;;;15.05;100.00;96988.03;5139929;28;20082;-64
2023/04/26 06:44:36;;;;;;;7.57;4.75;;;;;;;14.79;100.00;96986.56;5140247;28;20069;-68
2023/04/26 06:47:02;;;;;;;10.98;4.90;;;;;;;15.07;100.00;97009.66;5140521;27;20134;-66
2023/04/26 06:49:28;;;;;;;8.98;4.72;;;;;;;14.35;100.00;96991.94;5139289;27;20149;-66
2023/04/26 06:51:54;;;;;;;4.88;4.32;;;;;;;13.98;100.00;96983.22;5139697;28;20400;-65
2023/04/26 06:54:20;;;;;;;5.82;4.32;;;;;;;13.83;100.00;96960.13;5139430;27;20103;-64
2023/04/26 06:56:46;;;;;;;7.85;5.07;;;;;;;13.62;100.00;96956.00;5139626;27;20203;-64
2023/04/26 06:59:12;;;;;;;8.50;4.85;;;;;;;14.21;100.00;96953.81;5139227;28;20150;-71
2023/04/26 07:01:38;;;;;;;10.00;5.07;;;;;;;14.43;100.00;96973.97;5139539;28;20405;-68
2023/04/26 07:04:06;;;;;;;7.25;5.88;;;;;;;13.82;100.00;96950.28;5139442;28;20096;-67
2023/04/26 07:06:32;;;;;;;7.57;5.43;;;;;;;13.74;100.00;96940.72;5139373;27;20059;-71
2023/04/26 07:09:01;;;;;;;10.23;5.78;;;;;;;13.86;100.00;96926.94;5139250;28;20055;-66
2023/04/26 07:11:27;;;;;;;7.20;5.53;;;;;;;13.55;100.00;96943.22;5139121;28;20043;-69
2023/04/26 07:13:54;;;;;;;10.40;5.43;;;;;;;13.40;100.00;96937.38;5138942;27;20403;-69
2023/04/26 07:16:20;;;;;;;9.23;5.40;;;;;;;14.03;100.00;96921.31;5139094;28;20249;-66
2023/04/26 07:18:47;;;;;;;9.80;6.63;;;;;;;13.91;100.00;96914.59;5139360;28;20163;-66
2023/04/26 07:21:13;;;;;;;9.65;5.72;;;;;;;13.59;100.00;96913.59;5138984;28;20055;-65
2023/04/26 07:23:39;;;;;;;14.77;6.15;;;;;;;13.82;100.00;96909.75;5139263;28;20476;-65
2023/04/26 07:26:06;;;;;;;13.13;5.85;;;;;;;13.45;100.00;96918.75;5138659;27;20069;-67
2023/04/26 07:28:32;;;;;;;11.30;5.85;;;;;;;13.11;100.00;96969.63;5138633;27;20043;-66
2023/04/26 07:30:58;;;;;;;12.95;8.60;;;;;;;13.65;100.00;96983.41;5138851;28;20187;-68
2023/04/26 07:33:24;;;;;;;10.73;6.90;;;;;;;13.90;100.00;97012.22;5138816;28;20154;-65
2023/04/26 07:35:55;;;;;;;13.63;6.47;;;;;;;14.04;100.00;97027.53;5138624;27;20043;-65
2023/04/26 07:38:21;;;;;;;10.05;6.43;;;;;;;14.09;100.00;97051.78;5138771;28;20142;-63
2023/04/26 07:40:47;;;;;;;7.70;6.50;;;;;;;14.16;100.00;97062.59;5138702;28;20051;-66
2023/04/26 07:43:14;;;;;;;10.77;7.50;;;;;;;14.30;100.00;97020.81;5138439;27;20051;-64
2023/04/26 07:45:40;;;;;;;15.25;7.00;;;;;;;14.39;100.00;96995.34;5138801;27;20043;-65
2023/04/26 07:48:06;;;;;;;14.23;7.10;;;;;;;14.64;100.00;96963.47;5138340;28;20069;-67
2023/04/26 07:50:32;;;;;;;7.85;6.15;;;;;;;14.11;100.00;96933.66;5138780;28;20044;-65
2023/04/26 07:52:58;;;;;;;8.38;6.13;;;;;;;14.43;100.00;96937.31;5138396;28;20111;-63
2023/04/26 07:55:25;;;;;;;17.40;6.78;;;;;;;14.15;100.00;96928.78;5138650;28;20129;-67
2023/04/26 07:57:51;;;;;;;8.73;6.32;;;;;;;14.10;100.00;96919.09;5138070;27;20108;-67
2023/04/26 08:00:18;;;;;;;10.48;6.85;;;;;;;14.42;100.00;96922.00;5138297;27;20146;-69
2023/04/26 08:02:45;;;;;;;12.35;6.95;;;;;;;14.50;100.00;96926.88;5137985;28;20421;-64
2023/04/26 08:05:11;;;;;;;10.95;6.95;;;;;;;15.06;100.00;96928.09;5138180;27;20107;-65
2023/04/26 08:07:37;;;;;;;13.15;7.05;;;;;;;14.78;100.00;96927.13;5138325;28;20122;-67
2023/04/26 08:10:04;;;;;;;9.95;6.93;;;;;;;14.74;100.00;96938.28;5138113;27;20055;-66
2023/04/26 08:12:31;;;;;;;10.43;6.50;;;;;;;15.29;100.00;96960.78;5138200;28;20138;-65
2023/04/26 08:14:59;;;;;;;11.45;6.50;;;;;;;15.26;100.00;96991.25;5138100;27;20130;-64
2023/04/26 08:17:25;;;;;;;9.73;6.40;;;;;;;15.27;100.00;96982.53;5138129;27;20058;-65
2023/04/26 08:19:51;;;;;;;11.63;7.35;;;;;;;15.70;100.00;96980.22;5137865;28;20059;-66
2023/04/26 08:22:18;;;;;;;9.32;6.45;;;;;;;15.81;100.00;96985.34;5138365;28;20042;-66
2023/04/26 08:24:47;;;;;;;12.52;6.40;;;;;;;15.52;100.00;96965.03;5137895;28;20063;-64
2023/04/26 08:27:13;;;;;;;9.63;6.80;;;;;;;15.64;100.00;96965.44;5137930;28;20168;-68
2023/04/26 08:29:40;;;;;;;8.90;6.82;;;;;;;16.28;100.00;97045.91;5138035;27;20059;-68
2023/04/26 08:32:06;;;;;;;10.45;6.35;;;;;;;17.05;100.00;97051.50;5137988;28;20050;-68
2023/04/26 08:34:32;;;;;;;8.50;5.18;;;;;;;17.04;100.00;97215.31;5137895;27;20415;-64
2023/04/26 08:36:58;;;;;;;6.55;5.82;;;;;;;17.56;100.00;97238.53;5138276;27;20047;-67
2023/04/26 08:39:23;;;;;;;8.32;5.90;;;;;;;17.38;100.00;97267.72;5138159;28;20058;-65
2023/04/26 08:41:53;;;;;;;10.70;5.97;;;;;;;18.24;100.00;97305.81;5138043;28;20135;-67
2023/04/26 08:44:23;;;;;;;8.48;5.93;;;;;;;18.04;100.00;97377.59;5138099;28;20120;-63
2023/04/26 08:47:00;;;;;;;12.63;5.85;;;;;;;17.84;100.00;97412.00;5137757;28;20134;-65
2023/04/26 08:49:38;;;;;;;13.25;6.13;;;;;;;19.44;100.00;97402.91;5137902;28;20047;-66
2023/04/26 08:52:08;;;;;;;10.48;6.10;;;;;;;21.07;100.00;97512.34;5137774;28;20138;-64
2023/04/26 08:54:36;;;;;;;12.48;7.13;;;;;;;19.92;100.00;97551.22;5137517;27;20055;-62
2023/04/26 08:57:02;;;;;;;7.40;5.50;;;;;;;20.63;100.00;97549.91;5137314;28;20047;-65
2023/04/26 08:59:29;;;;;;;6.65;5.57;;;;;;;20.28;100.00;97549.56;5137358;27;20086;-65
2023/04/26 09:01:57;;;;;;;13.05;5.20;;;;;;;20.33;100.00;97570.44;5137874;27;20047;-67
2023/04/26 09:04:23;;;;;;;10.93;4.95;;;;;;;21.15;94.03;97592.31;5137208;27;20081;-67
2023/04/26 09:06:52;;;;;;;8.05;4.97;;;;;;;20.88;96.87;97598.81;5137433;27;20053;-67
2023/04/26 09:09:20;;;;;;;6.03;5.07;;;;;;;20.73;95.51;97586.06;5137336;28;20059;-63
2023/04/26 09:11:53;;;;;;;6.85;4.72;;;;;;;19.74;100.00;97579.06;5137724;27;20099;-67
2023/04/26 09:14:19;;;;;;;7.40;4.65;;;;;;;20.00;100.00;97579.50;5137195;27;20112;-65
2023/04/26 09:16:45;;;;;;;6.53;5.13;;;;;;;19.48;100.00;97561.91;5137478;28;20137;-64
2023/04/26 09:19:12;;;;;;;8.43;6.30;;;;;;;19.57;100.00;97559.13;5137609;28;20401;-63
2023/04/26 09:21:43;;;;;;;6.35;5.55;;;;;;;19.52;100.00;97576.41;5137342;28;20160;-64
2023/04/26 09:24:09;;;;;;;4.93;4.22;;;;;;;19.44;100.00;97564.06;5137728;27;20058;-66
2023/04/26 09:26:36;;;;;;;6.10;4.85;;;;;;;19.33;100.00;97572.09;5137361;28;20047;-63
2023/04/26 09:29:13;;;;;;;9.73;4.90;;;;;;;19.08;100.00;97575.94;5137231;28;20047;-69
2023/04/26 09:31:40;;;;;;;7.25;4.60;;;;;;;19.80;100.00;97549.41;5137022;28;20361;-68
2023/04/26 09:34:07;;;;;;;10.88;6.45;;;;;;;19.70;100.00;97562.53;5137255;27;20089;-67
2023/04/26 09:36:46;;;;;;;9.52;4.80;;;;;;;19.84;99.24;97585.38;5136868;27;20098;-66
2023/04/26 09:39:12;;;;;;;8.00;5.15;;;;;;;20.26;100.00;97574.31;5137061;27;20138;-66
2023/04/26 09:41:43;;;;;;;8.00;4.50;;;;;;;20.61;97.64;97585.03;5137091;28;20051;-69
2023/04/26 09:44:21;;;;;;;9.05;4.90;;;;;;;20.16;100.00;97570.03;5136956;28;20207;-64
2023/04/26 09:47:00;;;;;;;11.68;6.00;;;;;;;20.54;100.00;97558.31;5137811;28;20108;-63
2023/04/26 09:49:27;;;;;;;11.90;7.10;;;;;;;22.51;91.15;97592.84;5136597;28;20055;-65
2023/04/26 09:52:01;;;;;;;9.88;5.07;;;;;;;21.87;86.83;97599.84;5137165;27;20199;-68
2023/04/26 09:54:38;;;;;;;9.43;6.00;;;;;;;21.00;92.94;97585.16;5136543;28;20188;-66
2023/04/26 09:57:04;;;;;;;14.30;6.25;;;;;;;22.48;94.05;97577.81;5137454;28;20138;-72
2023/04/26 09:59:39;;;;;;;13.52;5.97;;;;;;;22.86;85.23;97598.44;5137310;28;20046;-65
2023/04/26 10:02:09;;;;;;;8.88;6.13;;;;;;;22.80;88.41;97592.00;5136533;27;20158;-77
2023/04/26 10:04:36;;;;;;;6.32;5.18;;;;;;;21.66;91.88;97578.63;5138008;28;20361;-72
2023/04/26 10:07:03;;;;;;;9.13;5.15;;;;;;;22.49;86.88;97579.38;5137829;27;20055;-62
2023/04/26 10:09:30;;;;;;;8.50;5.10;;;;;;;21.88;88.18;97578.28;5137352;28;20086;-72
2023/04/26 10:11:58;;;;;;;7.38;4.75;;;;;;;22.00;88.06;97578.00;5136798;27;20134;-71
2023/04/26 10:14:25;;;;;;;10.88;4.97;;;;;;;22.24;90.50;97571.59;5136666;28;20336;-75
2023/04/26 10:16:53;;;;;;;11.90;5.70;;;;;;;21.49;97.18;97558.78;5136559;27;20047;-76
2023/04/26 10:19:21;;;;;;;7.38;4.53;;;;;;;20.93;100.00;97564.00;5137270;28;20146;-76
2023/04/26 10:21:50;;;;;;;7.40;4.57;;;;;;;19.88;94.20;97561.72;5136586;27;20435;-66
2023/04/26 10:24:17;;;;;;;6.63;3.83;;;;;;;20.50;89.75;97563.25;5136654;27;20047;-75
2023/04/26 10:26:47;;;;;;;6.10;4.00;;;;;;;20.30;94.14;97572.16;5140094;28;20051;-71
2023/04/26 10:29:13;;;;;;;8.63;4.90;;;;;;;19.31;100.00;97542.00;5140009;27;20424;-77
2023/04/26 10:32:04;;;;;;;6.60;4.13;;;;;;;20.50;97.22;97559.69;5140780;28;20081;-79
2023/04/26 10:34:32;;;;;;;5.55;3.92;;;;;;;21.38;85.83;97581.66;5141232;28;20070;-67
2023/04/26 10:37:12;;;;;;;6.32;3.35;;;;;;;21.46;89.96;97568.13;5141274;27;20141;-65
2023/04/26 10:39:39;;;;;;;8.07;3.88;;;;;;;21.26;85.89;97577.06;5140470;28;20055;-68
2023/04/26 10:42:22;;;;;;;7.95;3.78;;;;;;;21.75;85.94;97586.94;5140116;27;20125;-64
2023/04/26 10:44:48;;;;;;;5.25;3.47;;;;;;;21.11;86.59;97574.22;5139639;27;20427;-65
2023/04/26 10:47:30;;;;;;;5.10;3.80;;;;;;;22.44;82.70;97574.44;5139505;28;20047;-66
2023/04/26 10:50:02;;;;;;;7.88;4.82;;;;;;;23.54;77.59;97588.94;5139369;28;20071;-64
2023/04/26 10:52:29;;;;;;;7.65;3.78;;;;;;;23.09;76.53;97590.38;5139231;28;20051;-67
2023/04/26 10:54:56;;;;;;;13.02;3.95;;;;;;;20.86;81.92;97586.63;5139615;28;20051;-67
2023/04/26 10:57:24;;;;;;;8.35;4.30;;;;;;;21.81;82.40;97571.84;5139128;28;20062;-66
2023/04/26 11:00:16;;;;;;;4.72;3.95;;;;;;;20.40;93.06;97545.06;5139472;27;20051;-64
2023/04/26 11:03:00;;;;;;;13.65;4.72;;;;;;;20.57;96.20;97548.25;5139252;28;20312;-63
2023/04/26 11:05:37;;;;;;;10.65;4.50;;;;;;;20.36;100.00;97530.50;5136264;27;20051;-65
2023/04/26 11:08:04;;;;;;;9.40;3.85;;;;;;;20.37;100.00;97518.16;5139454;27;20051;-65
2023/04/26 11:10:31;;;;;;;6.82;4.10;;;;;;;20.55;100.00;97528.44;5138926;27;20050;-64
2023/04/26 11:13:02;;;;;;;11.18;4.47;;;;;;;20.01;100.00;97530.97;5139288;27;20107;-63
2023/04/26 11:15:28;;;;;;;12.25;4.72;;;;;;;19.78;100.00;97526.06;5138986;28;20108;-63
2023/04/26 11:17:54;;;;;;;13.93;4.18;;;;;;;19.59;100.00;97505.84;5139210;28;20061;-63
2023/04/26 11:20:20;;;;;;;9.85;4.55;;;;;;;19.77;100.00;97521.75;5138747;27;20042;-64
2023/04/26 11:22:46;;;;;;;16.70;5.55;;;;;;;19.81;100.00;97527.91;5138860;28;20400;-64